createdAt,value
2023-03-19T00:02:18.029Z,33.92
2023-03-19T00:04:46.927Z,34.08
2023-03-19T00:07:16.111Z,36.58
2023-03-19T00:09:44.175Z,31.63
2023-03-19T00:12:12.208Z,34.67
2023-03-19T00:14:59.179Z,33.83
2023-03-19T00:18:01.244Z,35.25
2023-03-19T00:20:41.913Z,33.72
2023-03-19T00:23:09.252Z,34.30
2023-03-19T00:25:36.506Z,31.38
2023-03-19T00:28:03.481Z,34.65
2023-03-19T00:30:30.676Z,30.23
2023-03-19T00:32:58.391Z,33.40
2023-03-19T00:35:25.384Z,32.83
2023-03-19T00:37:52.833Z,31.65
2023-03-19T00:40:20.101Z,27.02
2023-03-19T00:42:47.160Z,31.50
2023-03-19T00:45:14.378Z,30.35
2023-03-19T00:47:42.333Z,31.08
2023-03-19T00:50:10.287Z,30.02
2023-03-19T00:52:57.202Z,33.50
2023-03-19T00:55:38.769Z,31.63
2023-03-19T00:58:06.984Z,29.92
2023-03-19T01:00:37.792Z,29.25
2023-03-19T01:03:06.615Z,31.05
2023-03-19T01:08:04.037Z,29.58
2023-03-19T01:10:34.200Z,29.52
2023-03-19T01:13:23.157Z,31.33
2023-03-19T01:16:20.098Z,27.05
2023-03-19T01:18:47.264Z,30.92
2023-03-19T01:21:14.740Z,33.30
2023-03-19T01:23:46.595Z,35.08
2023-03-19T01:26:13.904Z,31.00
2023-03-19T01:28:41.690Z,33.00
2023-03-19T01:31:10.089Z,32.40
2023-03-19T01:34:06.021Z,28.65
2023-03-19T01:36:59.138Z,28.77
2023-03-19T01:39:31.477Z,31.02
2023-03-19T01:42:02.033Z,29.25
2023-03-19T01:44:47.912Z,30.73
2023-03-19T01:47:30.093Z,28.55
2023-03-19T01:50:39.941Z,28.27
2023-03-19T01:53:39.437Z,29.15
2023-03-19T01:56:21.859Z,31.42
2023-03-19T01:59:31.531Z,32.30
2023-03-19T02:02:33.895Z,30.55
2023-03-19T02:05:15.583Z,33.60
2023-03-19T02:08:03.194Z,31.95
2023-03-19T02:11:07.217Z,31.70
2023-03-19T02:14:08.331Z,33.40
2023-03-19T02:17:07.986Z,27.10
2023-03-19T02:19:57.584Z,32.15
2023-03-19T02:22:29.193Z,28.15
2023-03-19T02:25:02.789Z,33.63
2023-03-19T02:27:31.421Z,27.65
2023-03-19T02:29:58.580Z,30.45
2023-03-19T02:32:27.132Z,31.88
2023-03-19T02:34:54.070Z,28.80
2023-03-19T02:37:33.390Z,31.15
2023-03-19T02:40:09.442Z,32.00
2023-03-19T02:42:36.480Z,30.67
2023-03-19T02:45:04.350Z,30.23
2023-03-19T02:47:31.677Z,31.52
2023-03-19T02:49:58.667Z,36.35
2023-03-19T02:52:26.059Z,29.73
2023-03-19T02:54:53.154Z,36.25
2023-03-19T02:57:20.624Z,32.72
2023-03-19T03:00:08.449Z,32.17
2023-03-19T03:02:49.108Z,31.02
2023-03-19T03:05:16.112Z,33.40
2023-03-19T03:07:45.916Z,32.05
2023-03-19T03:10:13.263Z,33.45
2023-03-19T03:12:41.733Z,30.58
2023-03-19T03:15:29.277Z,32.08
2023-03-19T03:18:30.259Z,31.20
2023-03-19T03:21:11.879Z,32.35
2023-03-19T03:23:38.814Z,33.15
2023-03-19T03:26:07.169Z,28.50
2023-03-19T03:28:35.082Z,29.85
2023-03-19T03:31:02.529Z,30.77
2023-03-19T03:33:30.028Z,32.45
2023-03-19T03:35:57.331Z,29.95
2023-03-19T03:38:24.946Z,30.55
2023-03-19T03:40:52.847Z,31.55
2023-03-19T03:43:23.402Z,31.30
2023-03-19T03:45:50.674Z,32.65
2023-03-19T03:48:18.283Z,30.80
2023-03-19T03:50:46.053Z,31.25
2023-03-19T03:53:37.243Z,31.13
2023-03-19T03:56:19.039Z,30.10
2023-03-19T03:58:46.316Z,32.28
2023-03-19T04:01:17.746Z,29.42
2023-03-19T04:03:48.611Z,33.17
2023-03-19T04:06:18.783Z,29.25
2023-03-19T04:08:49.416Z,33.78
2023-03-19T04:11:16.588Z,37.42
2023-03-19T04:14:05.490Z,36.13
2023-03-19T04:16:47.140Z,36.63
2023-03-19T04:19:14.496Z,35.42
2023-03-19T04:21:41.627Z,37.95
2023-03-19T04:24:10.732Z,39.25
2023-03-19T04:26:38.253Z,37.05
2023-03-19T04:29:08.338Z,30.33
2023-03-19T04:31:35.966Z,32.58
2023-03-19T04:34:03.147Z,25.10
2023-03-19T04:36:33.325Z,25.65
2023-03-19T04:39:00.741Z,28.13
2023-03-19T04:41:28.243Z,29.20
2023-03-19T04:44:13.710Z,27.75
2023-03-19T04:46:42.213Z,29.15
2023-03-19T04:49:09.363Z,29.38
2023-03-19T04:51:36.565Z,29.40
2023-03-19T04:54:23.269Z,27.15
2023-03-19T04:57:24.291Z,30.27
2023-03-19T05:00:05.175Z,27.83
2023-03-19T05:02:33.763Z,31.20
2023-03-19T05:05:01.526Z,31.90
2023-03-19T05:07:29.685Z,27.08
2023-03-19T05:09:59.799Z,33.85
2023-03-19T05:12:27.157Z,32.90
2023-03-19T05:15:12.334Z,28.08
2023-03-19T05:18:03.095Z,33.20
2023-03-19T05:20:42.841Z,30.60
2023-03-19T05:23:23.125Z,30.80
2023-03-19T05:26:16.812Z,30.20
2023-03-19T05:29:03.735Z,30.85
2023-03-19T05:31:43.702Z,29.90
2023-03-19T05:34:10.796Z,29.60
2023-03-19T05:36:37.878Z,31.25
2023-03-19T05:39:10.286Z,30.60
2023-03-19T05:41:39.728Z,34.50
2023-03-19T05:44:27.374Z,31.90
2023-03-19T05:47:25.844Z,32.40
2023-03-19T05:49:55.664Z,36.33
2023-03-19T05:52:23.598Z,46.83
2023-03-19T05:54:52.785Z,48.70
2023-03-19T05:57:36.842Z,44.60
2023-03-19T06:00:10.033Z,43.47
2023-03-19T06:02:37.462Z,47.13
2023-03-19T06:05:27.700Z,38.78
2023-03-19T06:07:59.463Z,39.20
2023-03-19T06:10:53.186Z,37.33
2023-03-19T06:13:40.351Z,35.63
2023-03-19T06:16:43.324Z,33.65
2023-03-19T06:19:35.629Z,28.63
2023-03-19T06:22:04.369Z,33.65
2023-03-19T06:24:31.498Z,35.92
2023-03-19T06:26:58.536Z,38.40
2023-03-19T06:29:26.073Z,38.13
2023-03-19T06:32:00.667Z,37.92
2023-03-19T06:34:39.870Z,39.17
2023-03-19T06:37:27.423Z,36.63
2023-03-19T06:40:08.448Z,36.92
2023-03-19T06:42:35.617Z,33.63
2023-03-19T06:45:03.783Z,38.95
2023-03-19T06:47:31.170Z,37.58
2023-03-19T06:49:58.285Z,36.28
2023-03-19T06:52:25.547Z,35.50
2023-03-19T06:54:52.531Z,32.33
2023-03-19T06:57:19.589Z,37.05
2023-03-19T06:59:46.579Z,35.47
2023-03-19T07:02:13.530Z,36.47
2023-03-19T07:04:40.552Z,37.03
2023-03-19T07:07:07.678Z,37.17
2023-03-19T07:09:34.786Z,37.63
2023-03-19T07:12:02.069Z,35.92
2023-03-19T07:14:49.359Z,35.30
2023-03-19T07:17:51.350Z,33.78
2023-03-19T07:20:52.373Z,34.15
2023-03-19T07:23:40.312Z,34.15
2023-03-19T07:26:07.395Z,35.70
2023-03-19T07:28:54.371Z,36.10
2023-03-19T07:31:35.006Z,33.67
2023-03-19T07:34:02.085Z,37.05
2023-03-19T07:36:29.360Z,38.17
2023-03-19T07:38:56.532Z,34.90
2023-03-19T07:41:23.633Z,36.67
2023-03-19T07:43:50.803Z,34.25
2023-03-19T07:46:18.241Z,34.50
2023-03-19T07:48:45.380Z,34.30
2023-03-19T07:51:12.379Z,33.50
2023-03-19T07:53:39.401Z,32.53
2023-03-19T07:56:06.856Z,30.38
2023-03-19T07:58:36.382Z,31.17
2023-03-19T08:01:03.831Z,29.08
2023-03-19T08:03:31.166Z,27.05
2023-03-19T08:05:58.121Z,23.35
2023-03-19T08:08:25.381Z,30.20
2023-03-19T08:10:54.494Z,27.50
2023-03-19T08:13:41.399Z,30.65
2023-03-19T08:16:22.284Z,30.05
2023-03-19T08:18:52.330Z,30.38
2023-03-19T08:21:40.421Z,32.10
2023-03-19T08:24:41.389Z,26.92
2023-03-19T08:27:22.247Z,28.23
2023-03-19T08:29:49.255Z,31.70
2023-03-19T08:32:16.431Z,29.58
2023-03-19T08:34:44.091Z,31.75
2023-03-19T08:37:11.313Z,32.50
2023-03-19T08:39:38.469Z,31.75
2023-03-19T08:42:06.135Z,30.70
2023-03-19T08:44:33.264Z,32.22
2023-03-19T08:47:00.367Z,29.60
2023-03-19T08:49:27.715Z,33.65
2023-03-19T08:51:54.656Z,33.53
2023-03-19T08:54:23.005Z,29.45
2023-03-19T08:56:50.573Z,31.30
2023-03-19T08:59:17.537Z,26.88
2023-03-19T09:01:44.655Z,31.33
2023-03-19T09:04:11.828Z,32.95
2023-03-19T09:06:38.718Z,32.25
2023-03-19T09:09:06.535Z,36.13
2023-03-19T09:11:53.494Z,35.17
2023-03-19T09:14:54.435Z,35.55
2023-03-19T09:17:55.503Z,25.52
2023-03-19T09:20:57.447Z,32.67
2023-03-19T09:23:26.049Z,33.53
2023-03-19T09:25:53.345Z,33.28
2023-03-19T09:28:20.972Z,28.05
2023-03-19T09:30:49.538Z,34.75
2023-03-19T09:33:18.265Z,29.08
2023-03-19T09:35:52.809Z,33.97
2023-03-19T09:38:21.912Z,32.22
2023-03-19T09:41:05.040Z,27.25
2023-03-19T09:44:05.135Z,34.78
2023-03-19T09:46:57.965Z,32.90
2023-03-19T09:49:28.584Z,34.72
2023-03-19T09:52:10.718Z,32.70
2023-03-19T09:54:52.731Z,37.15
2023-03-19T09:57:20.063Z,35.92
2023-03-19T09:59:48.368Z,35.08
2023-03-19T10:02:38.449Z,35.35
2023-03-19T10:05:43.499Z,34.00
2023-03-19T10:08:54.592Z,34.25
2023-03-19T10:11:44.390Z,36.42
2023-03-19T10:15:03.766Z,35.25
2023-03-19T10:17:53.124Z,34.53
2023-03-19T10:20:29.308Z,36.15
2023-03-19T10:23:31.584Z,33.83
2023-03-19T10:26:00.391Z,34.08
2023-03-19T10:28:29.793Z,33.92
2023-03-19T10:31:28.635Z,33.33
2023-03-19T10:34:17.328Z,31.58
2023-03-19T10:36:44.373Z,33.88
2023-03-19T10:39:16.540Z,31.70
2023-03-19T10:42:10.320Z,36.03
2023-03-19T10:44:46.097Z,33.17
2023-03-19T10:47:15.123Z,31.02
2023-03-19T10:49:42.723Z,30.95
2023-03-19T10:52:24.309Z,31.45
2023-03-19T10:55:19.492Z,31.20
2023-03-19T10:58:16.574Z,27.70
2023-03-19T11:00:47.161Z,30.70
2023-03-19T11:03:49.897Z,34.20
2023-03-19T11:06:23.725Z,26.40
2023-03-19T11:08:59.579Z,27.33
2023-03-19T11:11:34.889Z,25.75
2023-03-19T11:14:28.651Z,26.90
2023-03-19T11:17:51.515Z,24.25
2023-03-19T11:20:35.025Z,23.38
2023-03-19T11:23:07.876Z,25.10
2023-03-19T11:25:41.831Z,24.75
2023-03-19T11:28:14.645Z,23.75
2023-03-19T11:31:33.973Z,22.35
2023-03-19T11:34:34.237Z,26.20
2023-03-19T11:37:05.257Z,28.10
2023-03-19T11:39:43.962Z,28.02
2023-03-19T11:42:57.212Z,26.38
2023-03-19T11:45:57.107Z,22.30
2023-03-19T11:49:23.556Z,24.95
2023-03-19T11:52:22.355Z,23.27
2023-03-19T11:55:16.781Z,23.98
2023-03-19T11:57:55.144Z,26.00
2023-03-19T12:00:30.004Z,24.13
2023-03-19T12:03:09.423Z,23.20
2023-03-19T12:05:56.976Z,23.88
2023-03-19T12:08:33.868Z,21.08
2023-03-19T12:11:35.174Z,23.15
2023-03-19T12:14:31.583Z,21.20
2023-03-19T12:17:59.526Z,20.30
2023-03-19T12:20:51.632Z,22.23
2023-03-19T12:23:44.530Z,23.52
2023-03-19T12:26:33.242Z,22.35
2023-03-19T12:29:15.330Z,22.10
2023-03-19T12:31:45.298Z,21.77
2023-03-19T12:34:18.291Z,21.83
2023-03-19T12:37:07.995Z,21.30
2023-03-19T12:40:06.577Z,19.70
2023-03-19T12:43:11.556Z,20.40
2023-03-19T12:48:31.873Z,18.08
2023-03-19T12:51:06.723Z,18.88
2023-03-19T12:53:57.443Z,21.02
2023-03-19T12:56:43.316Z,18.98
2023-03-19T12:59:16.604Z,20.80
2023-03-19T13:01:57.618Z,22.17
2023-03-19T13:04:28.201Z,21.85
2023-03-19T13:07:07.813Z,21.85
2023-03-19T13:09:48.580Z,23.40
2023-03-19T13:12:29.336Z,21.20
2023-03-19T13:15:16.579Z,22.70
2023-03-19T13:18:34.374Z,23.80
2023-03-19T13:21:01.471Z,23.87
2023-03-19T13:23:35.777Z,22.63
2023-03-19T13:26:08.593Z,23.05
2023-03-19T13:28:38.702Z,25.02
2023-03-19T13:31:40.923Z,26.02
2023-03-19T13:37:24.075Z,24.40
2023-03-19T13:39:51.124Z,23.38
2023-03-19T13:42:39.637Z,23.55
2023-03-19T13:45:36.004Z,21.98
2023-03-19T13:48:30.220Z,22.00
2023-03-19T13:51:00.340Z,20.55
2023-03-19T13:53:37.878Z,22.00
2023-03-19T13:56:28.602Z,24.58
2023-03-19T13:59:15.132Z,24.58
2023-03-19T14:01:45.123Z,24.65
2023-03-19T14:04:44.630Z,27.05
2023-03-19T14:07:50.594Z,27.23
2023-03-19T14:10:32.168Z,28.08
2023-03-19T14:13:21.663Z,27.00
2023-03-19T14:16:18.415Z,26.77
2023-03-19T14:18:45.710Z,24.42
2023-03-19T14:21:31.359Z,26.15
2023-03-19T14:27:41.612Z,24.83
2023-03-19T14:30:53.675Z,25.17
2023-03-19T14:33:53.961Z,21.75
2023-03-19T14:36:22.520Z,24.45
2023-03-19T14:39:22.856Z,25.38
2023-03-19T14:41:56.964Z,23.63
2023-03-19T14:44:48.165Z,23.55
2023-03-19T14:47:32.851Z,25.75
2023-03-19T14:50:24.372Z,25.08
2023-03-19T14:53:04.649Z,22.50
2023-03-19T14:55:38.191Z,25.52
2023-03-19T14:58:25.706Z,26.40
2023-03-19T15:01:07.526Z,24.05
2023-03-19T15:03:54.653Z,24.38
2023-03-19T15:06:39.448Z,24.33
2023-03-19T15:09:27.127Z,23.95
2023-03-19T15:12:12.971Z,24.67
2023-03-19T15:15:05.684Z,24.17
2023-03-19T15:18:13.655Z,23.80
2023-03-19T15:20:55.954Z,26.48
2023-03-19T15:23:28.361Z,26.10
2023-03-19T15:25:58.480Z,25.63
2023-03-19T15:28:28.345Z,26.15
2023-03-19T15:31:13.936Z,24.23
2023-03-19T15:33:46.520Z,24.52
2023-03-19T15:36:13.738Z,23.42
2023-03-19T15:38:57.572Z,25.35
2023-03-19T15:41:28.916Z,24.17
2023-03-19T15:43:56.886Z,24.52
2023-03-19T15:46:29.537Z,23.38
2023-03-19T15:49:25.845Z,22.85
2023-03-19T15:52:12.503Z,24.42
2023-03-19T15:54:40.425Z,22.80
2023-03-19T15:57:16.291Z,23.77
2023-03-19T15:59:44.159Z,24.38
2023-03-19T16:02:21.499Z,22.95
2023-03-19T16:05:18.275Z,21.20
2023-03-19T16:07:44.905Z,22.35
2023-03-19T16:10:42.662Z,20.42
2023-03-19T16:13:39.741Z,22.67
2023-03-19T16:16:45.676Z,21.45
2023-03-19T16:19:38.930Z,19.38
2023-03-19T16:22:18.148Z,22.38
2023-03-19T16:24:47.378Z,21.23
2023-03-19T16:27:45.713Z,19.95
2023-03-19T16:30:27.988Z,19.73
2023-03-19T16:32:59.476Z,20.23
2023-03-19T16:35:30.286Z,19.95
2023-03-19T16:38:27.964Z,21.65
2023-03-19T16:41:31.709Z,19.85
2023-03-19T16:44:17.384Z,20.73
2023-03-19T16:46:44.913Z,21.90
2023-03-19T16:49:12.154Z,23.33
2023-03-19T16:51:39.777Z,29.17
2023-03-19T16:54:07.580Z,29.50
2023-03-19T16:56:34.733Z,31.95
2023-03-19T16:59:06.977Z,30.50
2023-03-19T17:01:34.183Z,30.13
2023-03-19T17:04:01.929Z,28.77
2023-03-19T17:06:31.708Z,27.73
2023-03-19T17:08:58.862Z,28.15
2023-03-19T17:11:34.736Z,28.42
2023-03-19T17:14:28.761Z,30.23
2023-03-19T17:17:18.432Z,28.90
2023-03-19T17:20:06.405Z,29.23
2023-03-19T17:23:07.003Z,29.13
2023-03-19T17:26:09.566Z,25.02
2023-03-19T17:28:50.420Z,27.88
2023-03-19T17:31:25.936Z,28.67
2023-03-19T17:34:06.212Z,28.55
2023-03-19T17:36:35.090Z,26.50
2023-03-19T17:39:06.604Z,27.35
2023-03-19T17:41:35.745Z,25.27
2023-03-19T17:44:06.273Z,25.55
2023-03-19T17:46:40.852Z,25.27
2023-03-19T17:49:18.350Z,23.00
2023-03-19T17:51:45.511Z,25.13
2023-03-19T17:54:13.163Z,26.45
2023-03-19T17:56:42.088Z,21.98
2023-03-19T17:59:12.862Z,25.48
2023-03-19T18:01:43.744Z,26.70
2023-03-19T18:04:16.501Z,25.20
2023-03-19T18:06:48.972Z,25.27
2023-03-19T18:09:39.743Z,25.00
2023-03-19T18:12:20.481Z,24.35
2023-03-19T18:15:07.808Z,23.63
2023-03-19T18:17:51.968Z,22.15
2023-03-19T18:20:21.863Z,22.10
2023-03-19T18:22:49.138Z,24.77
2023-03-19T18:25:42.110Z,22.20
2023-03-19T18:28:42.804Z,24.42
2023-03-19T18:31:25.906Z,23.75
2023-03-19T18:34:02.935Z,22.98
2023-03-19T18:36:32.523Z,23.63
2023-03-19T18:39:00.455Z,24.85
2023-03-19T18:41:29.303Z,23.15
2023-03-19T18:44:10.081Z,25.65
2023-03-19T18:46:39.418Z,22.20
2023-03-19T18:49:21.420Z,22.52
2023-03-19T18:52:01.599Z,22.38
2023-03-19T18:54:31.513Z,23.15
2023-03-19T18:57:01.244Z,24.75
2023-03-19T18:59:32.882Z,24.02
2023-03-19T19:02:31.847Z,20.90
2023-03-19T19:05:19.039Z,20.98
2023-03-19T19:07:48.083Z,21.90
2023-03-19T19:10:15.542Z,21.55
2023-03-19T19:12:45.977Z,18.45
2023-03-19T19:15:32.499Z,24.13
2023-03-19T19:17:59.712Z,22.80
2023-03-19T19:20:28.905Z,22.10
2023-03-19T19:22:56.924Z,22.23
2023-03-19T19:25:47.189Z,23.25
2023-03-19T19:28:51.872Z,22.92
2023-03-19T19:31:35.967Z,21.88
2023-03-19T19:34:03.280Z,21.10
2023-03-19T19:36:30.640Z,24.30
2023-03-19T19:38:57.831Z,24.25
2023-03-19T19:41:26.928Z,24.00
2023-03-19T19:43:56.211Z,21.25
2023-03-19T19:46:24.697Z,18.23
2023-03-19T19:48:51.923Z,23.70
2023-03-19T19:51:22.475Z,27.58
2023-03-19T19:54:10.856Z,25.70
2023-03-19T19:56:52.274Z,24.15
2023-03-19T19:59:22.791Z,27.95
2023-03-19T20:01:49.914Z,30.63
2023-03-19T20:04:36.833Z,30.83
2023-03-19T20:07:18.015Z,31.35
2023-03-19T20:09:45.367Z,31.08
2023-03-19T20:12:34.186Z,27.95
2023-03-19T20:15:01.990Z,34.83
2023-03-19T20:17:48.904Z,36.47
2023-03-19T20:20:40.886Z,29.58
2023-03-19T20:23:08.209Z,27.17
2023-03-19T20:25:37.792Z,27.88
2023-03-19T20:28:06.674Z,28.20
2023-03-19T20:30:39.565Z,30.90
2023-03-19T20:33:07.113Z,29.02
2023-03-19T20:35:36.739Z,30.13
2023-03-19T20:38:10.981Z,30.33
2023-03-19T20:43:09.786Z,27.48
2023-03-19T20:45:38.751Z,29.63
2023-03-19T20:48:14.192Z,28.05
2023-03-19T20:50:41.569Z,32.75
2023-03-19T20:53:09.993Z,34.05
2023-03-19T20:55:57.965Z,31.63
2023-03-19T20:58:59.262Z,29.33
2023-03-19T21:02:02.942Z,27.25
2023-03-19T21:04:44.627Z,31.20
2023-03-19T21:07:28.854Z,28.98
2023-03-19T21:12:32.014Z,30.73
2023-03-19T21:15:00.496Z,28.80
2023-03-19T21:17:28.781Z,29.52
2023-03-19T21:19:56.869Z,30.90
2023-03-19T21:22:29.974Z,30.17
2023-03-19T21:25:08.932Z,30.77
2023-03-19T21:27:37.342Z,28.00
2023-03-19T21:30:09.183Z,28.52
2023-03-19T21:32:56.006Z,31.27
2023-03-19T21:35:37.086Z,31.52
2023-03-19T21:38:07.782Z,29.13
2023-03-19T21:40:36.447Z,29.55
2023-03-19T21:43:05.228Z,27.80
2023-03-19T21:45:36.879Z,27.77
2023-03-19T21:48:22.443Z,28.23
2023-03-19T21:50:50.294Z,27.80
2023-03-19T21:53:18.836Z,26.55
2023-03-19T21:55:46.591Z,29.55
2023-03-19T21:58:42.973Z,27.55
2023-03-19T22:01:37.091Z,29.15
2023-03-19T22:04:19.509Z,28.30
2023-03-19T22:06:46.924Z,28.08
2023-03-19T22:09:33.944Z,26.42
2023-03-19T22:12:29.016Z,29.08
2023-03-19T22:14:57.700Z,27.35
2023-03-19T22:17:26.168Z,29.73
2023-03-19T22:19:53.252Z,29.00
2023-03-19T22:22:20.291Z,28.80
2023-03-19T22:24:47.510Z,27.55
2023-03-19T22:27:17.524Z,31.45
2023-03-19T22:29:46.226Z,29.65
2023-03-19T22:32:32.957Z,31.20
2023-03-19T22:35:18.562Z,31.45
2023-03-19T22:37:46.077Z,29.20
2023-03-19T22:40:15.406Z,32.25
2023-03-19T22:42:43.866Z,30.30
2023-03-19T22:45:32.412Z,30.67
2023-03-19T22:48:01.155Z,29.23
2023-03-19T22:50:30.563Z,31.60
2023-03-19T22:52:58.020Z,33.47
2023-03-19T22:55:25.303Z,34.63
2023-03-19T22:58:11.946Z,32.40
2023-03-19T23:01:13.940Z,30.45
2023-03-19T23:04:23.354Z,30.58
2023-03-19T23:06:51.947Z,31.02
2023-03-19T23:09:29.518Z,32.22
2023-03-19T23:11:59.303Z,29.55
2023-03-19T23:14:31.036Z,32.53
2023-03-19T23:17:06.935Z,30.00
2023-03-19T23:19:36.919Z,31.95
2023-03-19T23:22:06.472Z,33.17
2023-03-19T23:24:36.208Z,35.15
2023-03-19T23:27:04.348Z,35.33
2023-03-19T23:29:36.846Z,34.00
2023-03-19T23:32:24.946Z,34.45
2023-03-19T23:35:16.050Z,32.20
2023-03-19T23:37:43.042Z,32.08
2023-03-19T23:40:10.778Z,36.50
2023-03-19T23:42:44.314Z,31.80
2023-03-19T23:45:28.978Z,32.60
2023-03-19T23:47:58.378Z,30.67
2023-03-19T23:50:26.253Z,34.55
2023-03-19T23:53:13.999Z,34.53
2023-03-19T23:55:58.991Z,32.60
2023-03-19T23:58:49.172Z,35.45
